X  Fechar Dados meteorológicos de METAR da aviação     EHRD Rotterdam The Hague Airport
Temperatura
64°F Temperatura
57°F Ponto de orvalho
78% Umidade



Vento
5 MPH
8 KM/H
2 M/S
4 NÓS



10°
N
Condições atuais

Nuvens esparsas Nuvens esparsas
Pressão 1011.85 (hPa) - 29.88 (inHg)
Visibilidade 6 (milha) - 9.7 (km)
Aeroporto
Código do aeroporto EHRD

Localização: Rotterdam The Hague Airport
Distância: 14 (mi)

Metar:
EHRD 210955Z AUTO 01004KT 330V040 9999 SCT035/// OVC039/// 18/14 Q1012 REDZ NOSIG

Hora: 21-06-2024 11:55 CEST